Time;durP1;ratioP1;P1;durP2;ratioP2;P2;SDS_P1;SDS_P2;PMS_P1;PMS_P2;Temp;Humidity;BMP_temperature;BMP_pressure;BME280_temperature;BME280_humidity;BME280_pressure;Samples;Min_cycle;Max_cycle;Signal;HPM_P1;HPM_P2
2023/12/02 00:01:57;;;;;;;11.20;7.27;;;;;;;-2.01;100.00;99081.69;4992050;28;20222;-60
2023/12/02 00:04:23;;;;;;;10.33;8.03;;;;;;;-2.04;100.00;99075.03;5030690;28;20185;-60
2023/12/02 00:06:48;;;;;;;10.47;8.10;;;;;;;-2.06;100.00;99063.31;5030447;28;20184;-61
2023/12/02 00:09:13;;;;;;;11.93;8.77;;;;;;;-2.13;100.00;99065.13;5030558;28;20186;-60
2023/12/02 00:11:39;;;;;;;9.27;8.00;;;;;;;-2.16;100.00;99067.69;4998790;28;20226;-60
2023/12/02 00:14:04;;;;;;;10.63;8.50;;;;;;;-2.05;100.00;99073.34;5019475;28;20228;-59
2023/12/02 00:16:29;;;;;;;11.20;8.67;;;;;;;-2.18;100.00;99077.81;5034434;28;20566;-60
2023/12/02 00:18:55;;;;;;;10.87;8.33;;;;;;;-2.20;100.00;99066.09;5035114;28;20209;-59
2023/12/02 00:21:20;;;;;;;11.13;8.00;;;;;;;-2.23;100.00;99082.13;5011950;28;20310;-60
2023/12/02 00:23:45;;;;;;;11.27;8.70;;;;;;;-2.23;100.00;99068.66;5034418;28;20191;-60
2023/12/02 00:26:10;;;;;;;8.97;7.00;;;;;;;-2.32;100.00;99072.19;5035093;28;20197;-61
2023/12/02 00:28:36;;;;;;;11.20;8.27;;;;;;;-2.36;100.00;99066.38;5034093;28;20560;-60
2023/12/02 00:31:01;;;;;;;11.17;8.20;;;;;;;-2.33;100.00;99071.38;5009807;28;20686;-61
2023/12/02 00:33:26;;;;;;;9.23;7.97;;;;;;;-2.36;100.00;99073.13;5038402;28;20182;-60
2023/12/02 00:35:52;;;;;;;10.53;7.73;;;;;;;-2.38;100.00;99078.19;5034919;28;20182;-60
2023/12/02 00:38:17;;;;;;;10.83;8.20;;;;;;;-2.40;100.00;99074.03;5034108;28;20226;-61
2023/12/02 00:40:42;;;;;;;10.10;8.00;;;;;;;-2.43;100.00;99079.97;5029568;28;20233;-61
2023/12/02 00:43:07;;;;;;;12.17;7.57;;;;;;;-2.43;100.00;99085.00;5042309;28;20179;-60
2023/12/02 00:45:33;;;;;;;10.57;7.57;;;;;;;-2.37;100.00;99074.81;5034631;28;20558;-61
2023/12/02 00:47:58;;;;;;;10.83;7.47;;;;;;;-2.37;100.00;99081.53;5021847;28;20186;-61
2023/12/02 00:50:23;;;;;;;9.83;8.00;;;;;;;-2.36;100.00;99073.94;5022275;28;20287;-59
2023/12/02 00:52:48;;;;;;;12.87;8.17;;;;;;;-2.44;100.00;99085.84;5021079;28;20196;-60
2023/12/02 00:55:14;;;;;;;9.37;7.37;;;;;;;-2.40;100.00;99084.94;5034181;28;20239;-60
2023/12/02 00:57:39;;;;;;;11.27;7.47;;;;;;;-2.24;100.00;99080.44;5033976;28;20184;-59
2023/12/02 01:00:05;;;;;;;9.17;7.57;;;;;;;-2.25;100.00;99080.47;5024100;28;20647;-61
2023/12/02 01:02:30;;;;;;;11.53;8.67;;;;;;;-2.44;100.00;99078.28;5032238;28;20287;-60
2023/12/02 01:04:56;;;;;;;11.00;7.13;;;;;;;-2.41;100.00;99088.31;5028335;28;20737;-60
2023/12/02 01:07:21;;;;;;;9.43;8.20;;;;;;;-2.46;100.00;99085.84;5034025;28;20216;-61
2023/12/02 01:09:46;;;;;;;9.50;7.17;;;;;;;-2.56;100.00;99089.41;5034125;28;20608;-61
2023/12/02 01:12:11;;;;;;;9.70;7.10;;;;;;;-2.57;100.00;99095.28;5022268;28;20224;-60
2023/12/02 01:14:37;;;;;;;9.67;7.30;;;;;;;-2.54;100.00;99102.81;5033911;28;20204;-61
2023/12/02 01:17:02;;;;;;;10.10;7.40;;;;;;;-2.60;100.00;99095.34;5033460;28;20192;-60
2023/12/02 01:19:27;;;;;;;10.03;7.50;;;;;;;-2.59;100.00;99104.56;5034228;28;20315;-59
2023/12/02 01:21:52;;;;;;;9.57;7.20;;;;;;;-2.33;100.00;99113.34;5036746;28;20221;-59
2023/12/02 01:24:18;;;;;;;11.00;8.33;;;;;;;-2.36;100.00;99106.69;5035480;28;20196;-59
2023/12/02 01:26:43;;;;;;;12.07;8.60;;;;;;;-2.24;100.00;99113.19;5033243;28;20189;-59
2023/12/02 01:29:08;;;;;;;9.57;8.03;;;;;;;-2.40;100.00;99111.81;5034067;28;20212;-58
2023/12/02 01:31:34;;;;;;;9.37;7.67;;;;;;;-2.53;100.00;99113.69;5022250;28;20233;-59
2023/12/02 01:33:59;;;;;;;10.73;7.60;;;;;;;-2.51;100.00;99117.03;5033569;28;20627;-59
2023/12/02 01:36:24;;;;;;;11.23;8.53;;;;;;;-2.51;100.00;99127.09;5033378;28;20184;-58
2023/12/02 01:38:50;;;;;;;10.33;7.87;;;;;;;-2.54;100.00;99125.47;5033843;28;20197;-58
2023/12/02 01:41:15;;;;;;;13.97;9.10;;;;;;;-2.61;100.00;99139.81;5022293;28;20233;-60
2023/12/02 01:43:40;;;;;;;12.90;8.50;;;;;;;-2.70;100.00;99134.13;5033175;28;20185;-60
2023/12/02 01:46:06;;;;;;;10.17;7.90;;;;;;;-2.66;100.00;99146.63;5033061;28;20204;-58
2023/12/02 01:48:34;;;;;;;9.70;7.43;;;;;;;-2.79;100.00;99132.56;5033111;28;20193;-60
2023/12/02 01:51:00;;;;;;;11.63;8.27;;;;;;;-2.82;100.00;99143.50;5022204;28;20217;-59
2023/12/02 01:53:26;;;;;;;11.53;9.40;;;;;;;-2.52;100.00;99140.53;5033013;28;20195;-60
2023/12/02 01:55:52;;;;;;;9.03;6.73;;;;;;;-2.57;100.00;99152.38;5033194;28;20191;-60
2023/12/02 01:58:19;;;;;;;11.83;8.33;;;;;;;-2.61;100.00;99146.56;5031480;28;20181;-60
2023/12/02 02:00:44;;;;;;;12.53;8.63;;;;;;;-2.54;100.00;99148.13;5024386;28;20247;-59
2023/12/02 02:03:09;;;;;;;10.67;8.67;;;;;;;-2.63;100.00;99153.31;5042837;28;20213;-59
2023/12/02 02:05:35;;;;;;;9.03;7.20;;;;;;;-2.75;100.00;99151.81;5023036;28;20253;-59
2023/12/02 02:08:01;;;;;;;10.83;6.87;;;;;;;-2.91;100.00;99161.28;5032952;28;20290;-59
2023/12/02 02:10:26;;;;;;;8.70;6.83;;;;;;;-3.01;100.00;99162.28;5025678;28;20763;-61
2023/12/02 02:12:51;;;;;;;10.10;7.70;;;;;;;-3.02;100.00;99165.66;5045727;28;20307;-60
2023/12/02 02:15:17;;;;;;;8.33;6.40;;;;;;;-3.07;100.00;99163.19;5032801;28;21433;-59
2023/12/02 02:17:42;;;;;;;8.73;6.03;;;;;;;-3.13;100.00;99165.78;5032531;28;20187;-59
2023/12/02 02:20:08;;;;;;;8.73;6.53;;;;;;;-3.12;100.00;99157.38;5022522;28;20618;-59
2023/12/02 02:22:34;;;;;;;8.70;6.63;;;;;;;-3.10;100.00;99158.19;5015862;28;20212;-59
2023/12/02 02:24:59;;;;;;;9.20;7.83;;;;;;;-3.14;100.00;99154.91;5031743;28;20187;-59
2023/12/02 02:27:24;;;;;;;10.07;7.37;;;;;;;-3.06;100.00;99144.72;5032246;28;20699;-59
2023/12/02 02:29:50;;;;;;;9.03;7.00;;;;;;;-3.14;100.00;99146.50;5032173;28;20175;-61
2023/12/02 02:32:15;;;;;;;10.80;7.27;;;;;;;-3.03;100.00;99144.66;5021071;28;20286;-60
2023/12/02 02:34:44;;;;;;;11.50;7.90;;;;;;;-2.99;100.00;99143.78;5032538;28;20651;-59
2023/12/02 02:37:09;;;;;;;10.23;6.67;;;;;;;-2.83;100.00;99139.38;5032266;28;20177;-59
2023/12/02 02:39:35;;;;;;;8.57;6.90;;;;;;;-3.00;100.00;99144.63;5032122;28;20586;-61
2023/12/02 02:42:06;;;;;;;9.67;6.23;;;;;;;-2.96;100.00;99146.25;5020807;28;20223;-59
2023/12/02 02:44:34;;;;;;;8.67;6.83;;;;;;;-3.04;100.00;99144.69;5032039;28;20236;-60
2023/12/02 02:46:59;;;;;;;8.10;6.77;;;;;;;-2.92;100.00;99150.38;5031981;28;20188;-58
2023/12/02 02:49:24;;;;;;;9.47;6.40;;;;;;;-2.97;100.00;99149.59;5032277;28;20635;-58
2023/12/02 02:51:50;;;;;;;7.87;6.67;;;;;;;-2.95;100.00;99149.63;5021476;28;20316;-58
2023/12/02 02:54:15;;;;;;;8.87;7.43;;;;;;;-3.20;100.00;99152.47;5018833;28;20215;-60
2023/12/02 02:56:40;;;;;;;7.50;6.33;;;;;;;-3.10;100.00;99153.16;5031700;28;20507;-60
2023/12/02 02:59:06;;;;;;;9.77;7.00;;;;;;;-3.03;100.00;99163.97;5032016;28;20181;-59
2023/12/02 03:01:31;;;;;;;8.57;7.00;;;;;;;-3.04;100.00;99160.59;5009201;28;20325;-59
2023/12/02 03:03:57;;;;;;;8.60;7.10;;;;;;;-2.95;100.00;99167.22;5018509;28;20704;-58
2023/12/02 03:06:22;;;;;;;8.57;6.70;;;;;;;-2.88;100.00;99161.22;5031655;28;20199;-60
2023/12/02 03:08:47;;;;;;;8.27;6.77;;;;;;;-2.85;100.00;99163.72;5031757;28;20630;-59
2023/12/02 03:11:12;;;;;;;7.67;6.50;;;;;;;-2.82;100.00;99162.84;5020937;28;20288;-58
2023/12/02 03:13:38;;;;;;;8.23;6.73;;;;;;;-2.82;100.00;99160.31;5031254;28;20185;-58
2023/12/02 03:16:03;;;;;;;9.63;7.07;;;;;;;-2.62;100.00;99160.00;5032423;28;20214;-58
2023/12/02 03:18:28;;;;;;;9.60;6.67;;;;;;;-2.65;100.00;99167.63;5029732;28;20200;-59
2023/12/02 03:20:54;;;;;;;7.77;6.00;;;;;;;-2.67;100.00;99162.59;5028323;28;20262;-59
2023/12/02 03:23:19;;;;;;;7.90;6.23;;;;;;;-2.29;100.00;99167.88;5030472;28;20205;-59
2023/12/02 03:25:46;;;;;;;8.97;7.00;;;;;;;-2.26;100.00;99170.31;5031853;28;20204;-58
2023/12/02 03:28:12;;;;;;;8.53;6.60;;;;;;;-2.06;100.00;99166.63;5030869;28;20188;-59
2023/12/02 03:30:38;;;;;;;6.73;5.97;;;;;;;-1.67;100.00;99167.59;5021367;28;20237;-58
2023/12/02 03:33:03;;;;;;;8.53;6.50;;;;;;;-1.85;100.00;99167.94;5017759;28;20228;-60
2023/12/02 03:35:28;;;;;;;8.13;6.63;;;;;;;-2.01;100.00;99167.38;5031489;28;20277;-59
2023/12/02 03:37:54;;;;;;;6.70;5.87;;;;;;;-2.03;100.00;99176.69;5029798;28;20609;-59
2023/12/02 03:40:19;;;;;;;5.43;4.63;;;;;;;-2.23;100.00;99182.88;5023412;28;20312;-58
2023/12/02 03:42:44;;;;;;;6.43;5.70;;;;;;;-2.36;100.00;99188.97;5043308;28;20209;-59
2023/12/02 03:45:10;;;;;;;7.10;4.80;;;;;;;-2.52;100.00;99188.41;5030732;28;20559;-60
2023/12/02 03:47:35;;;;;;;6.60;5.20;;;;;;;-2.42;100.00;99186.56;5031162;28;20224;-59
2023/12/02 03:50:01;;;;;;;6.30;5.13;;;;;;;-2.64;100.00;99190.25;5030329;28;20182;-59
2023/12/02 03:52:26;;;;;;;5.73;5.13;;;;;;;-2.72;100.00;99181.16;5036508;28;20264;-59
2023/12/02 03:54:51;;;;;;;6.90;5.03;;;;;;;-2.70;100.00;99192.03;5031520;28;20734;-59
2023/12/02 03:57:16;;;;;;;5.47;4.83;;;;;;;-2.66;100.00;99186.09;5029248;28;20207;-59
2023/12/02 03:59:41;;;;;;;4.37;3.97;;;;;;;-2.72;100.00;99193.75;5031343;28;20254;-59
2023/12/02 04:02:07;;;;;;;6.23;4.90;;;;;;;-2.75;100.00;99199.66;5003060;28;20537;-59
2023/12/02 04:04:33;;;;;;;6.43;4.17;;;;;;;-2.74;100.00;99208.03;5022025;28;20193;-60
2023/12/02 04:06:58;;;;;;;5.57;4.30;;;;;;;-2.68;100.00;99212.97;5029423;28;20653;-59
2023/12/02 04:09:23;;;;;;;4.97;4.43;;;;;;;-2.62;100.00;99203.66;5031302;28;20279;-60
2023/12/02 04:11:49;;;;;;;5.07;4.33;;;;;;;-2.53;100.00;99216.94;5020094;28;20225;-60
2023/12/02 04:14:14;;;;;;;5.40;4.30;;;;;;;-2.62;100.00;99215.41;5031031;28;20689;-59
2023/12/02 04:16:40;;;;;;;5.00;4.20;;;;;;;-2.62;100.00;99217.91;5030253;28;20196;-58
2023/12/02 04:19:07;;;;;;;5.67;4.90;;;;;;;-2.40;100.00;99217.59;5030077;28;20270;-59
2023/12/02 04:21:33;;;;;;;6.03;4.93;;;;;;;-2.29;100.00;99213.22;5019778;28;20225;-60
2023/12/02 04:23:58;;;;;;;6.10;4.73;;;;;;;-2.25;100.00;99211.47;5030889;28;20192;-59
2023/12/02 04:26:23;;;;;;;6.17;4.90;;;;;;;-2.40;100.00;99218.44;5030623;28;20594;-59
2023/12/02 04:28:49;;;;;;;8.03;5.40;;;;;;;-2.47;100.00;99227.78;5030870;28;20194;-59
2023/12/02 04:31:14;;;;;;;5.03;4.33;;;;;;;-2.26;100.00;99223.22;4990067;28;20739;-59
2023/12/02 04:33:39;;;;;;;4.20;3.80;;;;;;;-2.34;100.00;99223.38;5024380;28;20209;-58
2023/12/02 04:36:05;;;;;;;5.53;4.43;;;;;;;-2.60;100.00;99227.09;5030783;28;20172;-61
2023/12/02 04:38:30;;;;;;;5.83;5.00;;;;;;;-2.48;100.00;99228.63;5030506;28;20263;-59
2023/12/02 04:40:56;;;;;;;5.67;4.70;;;;;;;-2.55;100.00;99237.13;5017123;28;20237;-59
2023/12/02 04:43:21;;;;;;;6.00;4.70;;;;;;;-2.67;100.00;99232.25;5022680;28;20196;-60
2023/12/02 04:45:46;;;;;;;7.07;4.83;;;;;;;-2.61;100.00;99227.13;5031002;28;20185;-58
2023/12/02 04:48:11;;;;;;;6.20;5.03;;;;;;;-2.30;100.00;99234.22;5030123;28;20663;-59
2023/12/02 04:50:37;;;;;;;6.53;5.40;;;;;;;-2.40;100.00;99237.75;5016770;28;20296;-59
2023/12/02 04:53:04;;;;;;;6.03;5.00;;;;;;;-2.48;100.00;99246.25;5020785;28;20182;-60
2023/12/02 04:55:30;;;;;;;6.70;5.53;;;;;;;-2.58;100.00;99243.88;5027678;28;20190;-59
2023/12/02 04:57:55;;;;;;;6.03;4.93;;;;;;;-2.37;100.00;99242.72;5033868;28;20262;-59
2023/12/02 05:00:21;;;;;;;7.70;5.80;;;;;;;-2.17;100.00;99245.78;5023451;28;20205;-59
2023/12/02 05:02:46;;;;;;;7.03;6.20;;;;;;;-2.15;100.00;99236.47;5033132;28;20208;-58
2023/12/02 05:05:12;;;;;;;7.53;5.33;;;;;;;-2.08;100.00;99248.97;5033899;28;20189;-57
2023/12/02 05:07:37;;;;;;;6.60;5.40;;;;;;;-1.95;100.00;99250.44;5033787;28;20209;-59
2023/12/02 05:10:04;;;;;;;6.70;5.60;;;;;;;-2.23;100.00;99255.94;5027103;28;20283;-59
2023/12/02 05:12:30;;;;;;;5.77;4.80;;;;;;;-2.57;100.00;99265.69;5032845;28;20186;-59
2023/12/02 05:14:55;;;;;;;6.00;4.43;;;;;;;-2.79;100.00;99259.28;5033694;28;20539;-59
2023/12/02 05:17:21;;;;;;;7.13;5.27;;;;;;;-2.79;100.00;99265.97;5033807;28;20535;-59
2023/12/02 05:19:47;;;;;;;5.20;4.70;;;;;;;-2.79;100.00;99266.81;5034347;28;20182;-60
2023/12/02 05:22:12;;;;;;;5.47;4.27;;;;;;;-2.82;100.00;99284.47;5022324;28;20629;-59
2023/12/02 05:24:38;;;;;;;4.63;4.03;;;;;;;-2.77;100.00;99282.75;5033461;28;20187;-60
2023/12/02 05:27:03;;;;;;;4.57;4.17;;;;;;;-2.53;100.00;99289.97;5033375;28;20199;-59
2023/12/02 05:29:29;;;;;;;6.93;5.20;;;;;;;-2.40;100.00;99293.16;5033974;28;20189;-59
2023/12/02 05:31:54;;;;;;;5.07;4.57;;;;;;;-2.56;100.00;99295.06;5022567;28;20647;-59
2023/12/02 05:34:19;;;;;;;5.53;3.83;;;;;;;-2.56;100.00;99300.09;5033338;28;20673;-60
2023/12/02 05:36:46;;;;;;;5.73;4.13;;;;;;;-2.82;100.00;99312.16;5033193;28;20244;-60
2023/12/02 05:39:12;;;;;;;6.47;4.80;;;;;;;-2.77;100.00;99323.03;5033569;28;20181;-60
2023/12/02 05:41:40;;;;;;;6.83;4.90;;;;;;;-2.69;100.00;99322.94;5022659;28;20239;-60
2023/12/02 05:44:05;;;;;;;5.37;4.40;;;;;;;-2.70;100.00;99335.53;5033320;28;20208;-58
2023/12/02 05:46:31;;;;;;;3.20;2.67;;;;;;;-2.81;100.00;99336.47;5033124;28;20224;-60
2023/12/02 05:48:56;;;;;;;6.13;4.13;;;;;;;-2.79;100.00;99337.31;5033196;28;20187;-60
2023/12/02 05:51:22;;;;;;;6.17;4.93;;;;;;;-2.65;100.00;99348.91;5022102;28;20449;-60
2023/12/02 05:53:47;;;;;;;5.10;4.60;;;;;;;-2.69;100.00;99353.13;5019814;28;20601;-60
2023/12/02 05:56:13;;;;;;;4.63;3.90;;;;;;;-2.83;100.00;99350.78;5033438;28;20549;-60
2023/12/02 05:58:38;;;;;;;6.03;4.03;;;;;;;-2.97;100.00;99350.94;5032613;28;20550;-59
2023/12/02 06:01:03;;;;;;;4.17;3.23;;;;;;;-3.01;100.00;99353.53;5001805;28;20319;-59
2023/12/02 06:03:29;;;;;;;4.07;3.67;;;;;;;-2.86;100.00;99358.38;5032522;28;20533;-60
2023/12/02 06:05:55;;;;;;;4.97;4.17;;;;;;;-2.88;100.00;99360.06;5033276;28;20184;-60
2023/12/02 06:08:20;;;;;;;5.40;3.90;;;;;;;-2.99;100.00;99359.34;5030478;28;20180;-60
2023/12/02 06:10:46;;;;;;;4.10;3.70;;;;;;;-2.93;100.00;99355.09;5021913;28;20298;-60
2023/12/02 06:13:11;;;;;;;4.57;3.70;;;;;;;-2.84;100.00;99355.81;5032050;28;20183;-60
2023/12/02 06:15:36;;;;;;;5.00;3.97;;;;;;;-2.87;100.00;99364.25;5033323;28;21033;-60
2023/12/02 06:18:03;;;;;;;5.10;4.13;;;;;;;-2.80;100.00;99365.84;5032590;28;20203;-59
2023/12/02 06:20:28;;;;;;;5.00;4.23;;;;;;;-2.56;100.00;99373.13;5017643;28;20263;-60
2023/12/02 06:22:53;;;;;;;4.77;4.37;;;;;;;-2.72;100.00;99372.47;5031746;28;20469;-61
2023/12/02 06:25:19;;;;;;;8.80;4.00;;;;;;;-2.95;100.00;99371.88;5031573;28;20323;-59
2023/12/02 06:27:45;;;;;;;7.30;4.93;;;;;;;-2.84;100.00;99363.38;5032607;28;20180;-59
2023/12/02 06:30:11;;;;;;;6.13;4.27;;;;;;;-2.66;100.00;99370.72;5020537;28;20177;-58
2023/12/02 06:32:37;;;;;;;4.87;4.40;;;;;;;-2.67;100.00;99373.25;5031304;28;20183;-59
2023/12/02 06:35:02;;;;;;;4.53;4.13;;;;;;;-2.60;100.00;99378.19;5032909;28;20373;-59
2023/12/02 06:37:27;;;;;;;7.07;4.37;;;;;;;-2.55;100.00;99385.69;5031937;28;20190;-59
2023/12/02 06:39:52;;;;;;;4.90;4.40;;;;;;;-2.29;100.00;99392.09;5032541;28;20214;-59
2023/12/02 06:42:18;;;;;;;5.23;4.73;;;;;;;-2.21;100.00;99381.91;5020518;28;20241;-59
2023/12/02 06:44:43;;;;;;;5.13;4.63;;;;;;;-2.02;100.00;99377.41;5032621;28;20594;-60
2023/12/02 06:47:08;;;;;;;5.73;4.33;;;;;;;-1.97;100.00;99381.56;5032319;28;20200;-59
2023/12/02 06:49:34;;;;;;;4.73;3.97;;;;;;;-2.19;100.00;99388.59;5032414;28;20188;-59
2023/12/02 06:51:59;;;;;;;4.37;3.93;;;;;;;-2.31;100.00;99384.56;5036872;28;20229;-59
2023/12/02 06:54:24;;;;;;;5.23;4.33;;;;;;;-2.45;100.00;99388.94;5032748;28;20178;-59
2023/12/02 06:56:50;;;;;;;4.73;4.23;;;;;;;-2.51;100.00;99399.09;5031904;28;20220;-59
2023/12/02 06:59:15;;;;;;;5.00;4.20;;;;;;;-2.57;100.00;99402.50;5030566;28;20170;-60
2023/12/02 07:01:40;;;;;;;4.53;3.43;;;;;;;-2.70;100.00;99406.84;5020874;28;20589;-62
2023/12/02 07:04:06;;;;;;;3.77;3.40;;;;;;;-2.66;100.00;99410.19;5031805;28;20165;-60
2023/12/02 07:06:32;;;;;;;4.57;3.53;;;;;;;-2.29;100.00;99420.63;5031346;28;20196;-60
2023/12/02 07:08:58;;;;;;;6.30;3.90;;;;;;;-2.52;100.00;99428.44;5030665;28;20218;-59
2023/12/02 07:11:23;;;;;;;5.37;3.80;;;;;;;-2.73;100.00;99433.75;5020702;28;20591;-62
2023/12/02 07:13:49;;;;;;;4.00;3.60;;;;;;;-2.87;100.00;99434.72;5031618;28;20188;-60
2023/12/02 07:16:14;;;;;;;9.80;2.80;;;;;;;-2.93;100.00;99435.63;5031949;28;20193;-62
2023/12/02 07:18:40;;;;;;;5.50;3.43;;;;;;;-2.74;100.00;99445.50;5031338;28;20191;-60
2023/12/02 07:21:06;;;;;;;5.43;4.70;;;;;;;-2.68;100.00;99450.47;5020521;28;20232;-60
2023/12/02 07:23:31;;;;;;;5.07;4.17;;;;;;;-2.48;100.00;99450.25;5030424;28;20206;-59
2023/12/02 07:25:57;;;;;;;7.80;4.53;;;;;;;-2.64;100.00;99458.84;5031779;28;20269;-61
2023/12/02 07:28:23;;;;;;;4.37;3.97;;;;;;;-2.76;100.00;99460.63;5031548;28;20547;-60
2023/12/02 07:30:49;;;;;;;3.80;3.50;;;;;;;-2.61;100.00;99459.63;5016893;28;20240;-61
2023/12/02 07:33:14;;;;;;;5.40;3.83;;;;;;;-2.69;100.00;99458.03;5024387;28;20174;-60
2023/12/02 07:35:40;;;;;;;3.90;3.50;;;;;;;-2.56;100.00;99462.09;5013935;28;20204;-61
2023/12/02 07:38:05;;;;;;;4.77;4.37;;;;;;;-2.69;100.00;99468.94;5040117;28;20249;-60
2023/12/02 07:40:30;;;;;;;3.70;3.33;;;;;;;-2.72;100.00;99468.97;5018370;28;20259;-60
2023/12/02 07:42:55;;;;;;;4.37;3.90;;;;;;;-2.89;100.00;99479.22;5030309;28;20248;-60
2023/12/02 07:45:21;;;;;;;5.57;4.07;;;;;;;-2.82;100.00;99474.97;5025016;28;20194;-61
2023/12/02 07:47:46;;;;;;;4.43;3.93;;;;;;;-2.93;100.00;99473.38;5031148;28;20188;-59
2023/12/02 07:50:11;;;;;;;4.87;4.20;;;;;;;-2.95;100.00;99476.78;5019828;28;20639;-61
2023/12/02 07:52:37;;;;;;;4.13;3.73;;;;;;;-3.01;100.00;99487.72;5029887;28;20728;-61
2023/12/02 07:55:02;;;;;;;4.97;4.00;;;;;;;-3.08;100.00;99491.13;5031412;28;20492;-59
2023/12/02 07:57:27;;;;;;;5.27;4.77;;;;;;;-2.94;100.00;99486.81;5030769;28;20190;-60
2023/12/02 07:59:53;;;;;;;7.50;4.63;;;;;;;-2.76;100.00;99490.00;5031625;28;20193;-61
2023/12/02 08:02:18;;;;;;;4.73;4.23;;;;;;;-2.68;100.00;99489.91;5038262;28;20632;-61
2023/12/02 08:04:43;;;;;;;5.20;4.47;;;;;;;-2.65;100.00;99499.97;5031256;28;20189;-60
2023/12/02 08:07:09;;;;;;;6.27;5.37;;;;;;;-2.58;100.00;99503.25;5030761;28;20181;-60
2023/12/02 08:09:34;;;;;;;4.50;4.00;;;;;;;-2.89;100.00;99496.84;5031142;28;20212;-61
2023/12/02 08:11:59;;;;;;;5.10;4.60;;;;;;;-2.94;100.00;99503.56;5017525;28;20816;-60
2023/12/02 08:14:25;;;;;;;4.50;4.10;;;;;;;-2.92;100.00;99507.75;5031019;28;20181;-60
2023/12/02 08:16:50;;;;;;;4.77;4.37;;;;;;;-2.79;100.00;99505.13;5030531;28;20202;-59
2023/12/02 08:19:16;;;;;;;6.27;4.70;;;;;;;-2.64;100.00;99517.56;5031366;28;20182;-60
2023/12/02 08:21:41;;;;;;;4.73;4.30;;;;;;;-2.85;100.00;99511.06;5033885;28;20223;-60
2023/12/02 08:24:07;;;;;;;4.73;4.23;;;;;;;-2.79;100.00;99523.59;5033703;28;20284;-61
2023/12/02 08:26:32;;;;;;;7.73;4.87;;;;;;;-2.69;100.00;99520.97;5030603;28;20198;-59
2023/12/02 08:28:57;;;;;;;6.00;5.40;;;;;;;-2.66;100.00;99526.00;5031164;28;20342;-59
2023/12/02 08:31:23;;;;;;;5.57;4.73;;;;;;;-2.85;100.00;99518.63;4981056;28;20237;-59
2023/12/02 08:33:48;;;;;;;6.50;5.13;;;;;;;-2.69;100.00;99526.00;5026798;28;20192;-59
2023/12/02 08:36:13;;;;;;;6.73;5.70;;;;;;;-2.63;100.00;99529.31;5033784;28;20184;-59
2023/12/02 08:38:39;;;;;;;6.67;4.57;;;;;;;-2.55;100.00;99528.41;5032617;28;20181;-60
2023/12/02 08:41:04;;;;;;;5.10;4.60;;;;;;;-2.55;100.00;99535.97;5019743;28;20226;-60
2023/12/02 08:43:29;;;;;;;5.37;4.40;;;;;;;-2.74;100.00;99545.38;5033234;28;20210;-59
2023/12/02 08:45:54;;;;;;;5.47;4.97;;;;;;;-2.53;100.00;99546.84;5033555;28;20252;-60
2023/12/02 08:48:20;;;;;;;6.37;4.70;;;;;;;-2.45;100.00;99538.34;5033799;28;20231;-60
2023/12/02 08:50:45;;;;;;;5.93;5.07;;;;;;;-2.52;100.00;99544.31;5021795;28;20737;-59
2023/12/02 08:53:10;;;;;;;6.10;5.33;;;;;;;-2.63;100.00;99549.47;5033584;28;20177;-59
2023/12/02 08:55:35;;;;;;;5.07;4.43;;;;;;;-2.68;100.00;99548.69;5034625;28;20177;-60
2023/12/02 08:58:02;;;;;;;5.20;4.70;;;;;;;-2.67;100.00;99552.84;5034273;28;20191;-59
2023/12/02 09:00:28;;;;;;;5.20;4.70;;;;;;;-2.71;100.00;99553.72;5023505;28;20237;-59
2023/12/02 09:02:53;;;;;;;4.93;4.43;;;;;;;-2.78;100.00;99552.09;5033550;28;20200;-60
2023/12/02 09:05:19;;;;;;;9.20;5.63;;;;;;;-2.58;100.00;99559.47;5034188;28;20192;-60
2023/12/02 09:07:44;;;;;;;6.53;5.87;;;;;;;-2.45;100.00;99557.69;5033673;28;20181;-59
2023/12/02 09:10:09;;;;;;;5.47;4.43;;;;;;;-2.69;100.00;99566.28;5023935;28;20632;-59
2023/12/02 09:12:35;;;;;;;6.33;5.63;;;;;;;-2.79;100.00;99566.38;5032916;28;20230;-59
2023/12/02 09:15:06;;;;;;;5.83;5.23;;;;;;;-2.73;100.00;99570.53;5034092;28;20174;-59
2023/12/02 09:17:56;;;;;;;6.47;5.43;;;;;;;-2.68;100.00;99571.34;5033504;28;20188;-59
2023/12/02 09:20:49;;;;;;;7.40;6.27;;;;;;;-2.61;100.00;99574.63;5013071;28;20203;-59
2023/12/02 09:23:16;;;;;;;8.10;5.87;;;;;;;-2.65;100.00;99573.00;5033248;28;20189;-60
2023/12/02 09:25:43;;;;;;;6.40;5.63;;;;;;;-2.47;100.00;99577.00;5034077;28;20193;-60
2023/12/02 09:28:17;;;;;;;18.70;12.87;;;;;;;-2.40;100.00;99576.09;5033277;28;20200;-60
2023/12/02 09:30:55;;;;;;;7.50;6.60;;;;;;;-2.09;100.00;99585.88;5022839;28;20688;-61
2023/12/02 09:33:20;;;;;;;6.50;5.83;;;;;;;-2.27;100.00;99585.22;5033423;28;20181;-60
2023/12/02 09:35:48;;;;;;;6.23;5.40;;;;;;;-2.28;100.00;99586.06;5033565;28;20213;-60
2023/12/02 09:38:15;;;;;;;8.27;5.80;;;;;;;-2.33;100.00;99591.97;5033498;28;20172;-60
2023/12/02 09:41:11;;;;;;;6.17;4.80;;;;;;;-2.50;100.00;99592.16;5027929;28;20233;-60
2023/12/02 09:44:14;;;;;;;6.20;5.30;;;;;;;-2.44;100.00;99600.50;5039402;28;20196;-59
2023/12/02 09:47:06;;;;;;;10.93;8.00;;;;;;;-2.43;100.00;99601.34;5024676;28;20235;-59
2023/12/02 09:49:49;;;;;;;6.70;5.80;;;;;;;-2.30;100.00;99605.38;5022040;28;20224;-59
2023/12/02 09:52:47;;;;;;;9.63;7.33;;;;;;;-2.21;100.00;99604.47;5006707;28;20233;-60
2023/12/02 09:55:29;;;;;;;5.30;4.17;;;;;;;-2.34;100.00;99611.31;5033446;28;20247;-61
2023/12/02 09:58:22;;;;;;;7.83;6.37;;;;;;;-2.34;100.00;99618.88;5032967;28;20264;-60
2023/12/02 10:00:56;;;;;;;6.87;5.40;;;;;;;-2.49;100.00;99619.03;5022361;28;20286;-60
2023/12/02 10:04:03;;;;;;;6.70;5.60;;;;;;;-2.33;100.00;99619.69;5032585;28;20265;-60
2023/12/02 10:06:47;;;;;;;6.37;5.53;;;;;;;-2.44;100.00;99629.88;4952018;29;20256;-60
2023/12/02 10:10:03;;;;;;;7.30;6.10;;;;;;;-2.48;100.00;99630.75;4953084;29;20203;-60
2023/12/02 10:12:48;;;;;;;6.43;4.80;;;;;;;-2.50;100.00;99632.47;4902824;29;20226;-59
2023/12/02 10:15:16;;;;;;;8.30;6.43;;;;;;;-2.75;100.00;99640.22;4914560;29;20197;-59
2023/12/02 10:18:10;;;;;;;8.30;6.83;;;;;;;-2.56;100.00;99630.00;4914159;29;20219;-59
2023/12/02 10:20:38;;;;;;;6.37;5.43;;;;;;;-2.60;100.00;99635.03;4898242;29;20333;-60
2023/12/02 10:23:21;;;;;;;7.97;5.93;;;;;;;-2.63;100.00;99644.31;4914280;29;20230;-59
2023/12/02 10:25:47;;;;;;;9.40;5.70;;;;;;;-2.62;100.00;99636.75;4914435;29;20216;-60
2023/12/02 10:28:45;;;;;;;10.13;5.57;;;;;;;-2.74;100.00;99636.84;4913791;29;20200;-60
2023/12/02 10:31:22;;;;;;;7.20;6.07;;;;;;;-2.64;100.00;99640.97;4904238;29;20225;-59
2023/12/02 10:34:00;;;;;;;7.03;5.90;;;;;;;-2.60;100.00;99635.03;4914210;29;20493;-59
2023/12/02 10:36:27;;;;;;;6.50;5.90;;;;;;;-2.46;100.00;99636.63;4912637;29;20196;-59
2023/12/02 10:39:01;;;;;;;7.00;5.53;;;;;;;-2.54;100.00;99634.16;4914115;29;20208;-59
2023/12/02 10:41:51;;;;;;;7.93;6.67;;;;;;;-2.51;100.00;99639.16;4904421;29;20247;-59
2023/12/02 10:44:20;;;;;;;9.70;5.83;;;;;;;-2.37;100.00;99650.81;4970131;28;20192;-59
2023/12/02 10:46:46;;;;;;;8.33;6.17;;;;;;;-2.39;100.00;99650.84;4970885;28;20192;-58
2023/12/02 10:49:14;;;;;;;6.80;6.00;;;;;;;-2.62;100.00;99651.00;5030036;28;20355;-59
2023/12/02 10:51:40;;;;;;;6.30;5.63;;;;;;;-2.70;100.00;99650.25;5021198;28;20228;-60
2023/12/02 10:54:08;;;;;;;7.20;5.60;;;;;;;-2.64;100.00;99658.59;5031670;28;20170;-60
2023/12/02 10:56:37;;;;;;;7.43;6.30;;;;;;;-2.64;100.00;99652.72;5031814;28;20193;-60
2023/12/02 10:59:04;;;;;;;7.40;5.93;;;;;;;-2.71;100.00;99651.91;5032188;28;20193;-59
2023/12/02 11:01:37;;;;;;;7.50;5.50;;;;;;;-2.70;100.00;99650.25;5032558;28;20233;-60
2023/12/02 11:04:15;;;;;;;6.23;5.17;;;;;;;-2.85;100.00;99654.53;5035566;28;20181;-58
2023/12/02 11:06:45;;;;;;;7.33;6.37;;;;;;;-2.69;100.00;99657.78;5031277;28;20663;-60
2023/12/02 11:09:22;;;;;;;9.63;6.53;;;;;;;-2.58;100.00;99657.69;5030771;28;20188;-59
2023/12/02 11:12:13;;;;;;;11.03;6.60;;;;;;;-2.50;100.00;99655.13;5020314;28;21041;-60
2023/12/02 11:14:41;;;;;;;7.97;6.33;;;;;;;-2.57;100.00;99658.53;5031679;28;20188;-61
2023/12/02 11:17:15;;;;;;;7.50;6.03;;;;;;;-2.58;100.00;99659.38;5031176;28;20197;-59
2023/12/02 11:20:05;;;;;;;9.03;5.60;;;;;;;-2.58;100.00;99662.72;5031874;28;20523;-60
2023/12/02 11:22:30;;;;;;;8.03;6.30;;;;;;;-2.58;100.00;99657.69;5019713;28;20465;-60
2023/12/02 11:25:21;;;;;;;6.93;6.23;;;;;;;-2.48;100.00;99666.84;5031688;28;20205;-59
2023/12/02 11:28:03;;;;;;;7.33;6.20;;;;;;;-2.37;100.00;99660.88;5028986;28;20234;-59